sensor_id;sensor_type;location;lat;lon;timestamp;P1;durP1;ratioP1;P2;durP2;ratioP2
7247;SDS011;3665;51.034;13.642;2023-03-01T00:12:43;24.40;;;16.70;;
7247;SDS011;3665;51.034;13.642;2023-03-01T00:17:45;26.23;;;17.27;;
7247;SDS011;3665;51.034;13.642;2023-03-01T00:22:59;24.53;;;16.03;;
7247;SDS011;3665;51.034;13.642;2023-03-01T00:28:03;26.93;;;16.80;;
7247;SDS011;3665;51.034;13.642;2023-03-01T00:32:52;28.07;;;18.70;;
7247;SDS011;3665;51.034;13.642;2023-03-01T00:38:11;26.90;;;16.60;;
7247;SDS011;3665;51.034;13.642;2023-03-01T00:43:22;30.33;;;17.93;;
7247;SDS011;3665;51.034;13.642;2023-03-01T00:59:29;33.07;;;21.13;;
7247;SDS011;3665;51.034;13.642;2023-03-01T01:04:17;29.30;;;19.27;;
7247;SDS011;3665;51.034;13.642;2023-03-01T01:09:10;33.10;;;19.70;;
7247;SDS011;3665;51.034;13.642;2023-03-01T01:14:49;30.63;;;18.80;;
7247;SDS011;3665;51.034;13.642;2023-03-01T01:19:46;28.93;;;19.30;;
7247;SDS011;3665;51.034;13.642;2023-03-01T01:24:59;25.93;;;17.40;;
7247;SDS011;3665;51.034;13.642;2023-03-01T01:30:28;35.17;;;20.13;;
7247;SDS011;3665;51.034;13.642;2023-03-01T01:36:07;28.00;;;18.60;;
7247;SDS011;3665;51.034;13.642;2023-03-01T01:41:24;31.23;;;18.40;;
7247;SDS011;3665;51.034;13.642;2023-03-01T01:52:04;29.80;;;18.07;;
7247;SDS011;3665;51.034;13.642;2023-03-01T01:57:11;30.17;;;19.67;;
7247;SDS011;3665;51.034;13.642;2023-03-01T02:02:09;31.73;;;19.70;;
7247;SDS011;3665;51.034;13.642;2023-03-01T02:12:37;29.53;;;19.93;;
7247;SDS011;3665;51.034;13.642;2023-03-01T02:17:43;30.77;;;20.87;;
7247;SDS011;3665;51.034;13.642;2023-03-01T02:22:47;33.47;;;20.67;;
7247;SDS011;3665;51.034;13.642;2023-03-01T02:27:47;28.13;;;18.83;;
7247;SDS011;3665;51.034;13.642;2023-03-01T02:32:53;26.83;;;16.97;;
7247;SDS011;3665;51.034;13.642;2023-03-01T02:37:53;28.87;;;18.00;;
7247;SDS011;3665;51.034;13.642;2023-03-01T02:42:58;27.47;;;17.30;;
7247;SDS011;3665;51.034;13.642;2023-03-01T02:48:04;27.70;;;17.83;;
7247;SDS011;3665;51.034;13.642;2023-03-01T02:53:10;28.80;;;17.53;;
7247;SDS011;3665;51.034;13.642;2023-03-01T02:58:10;32.17;;;19.20;;
7247;SDS011;3665;51.034;13.642;2023-03-01T03:03:18;27.33;;;18.50;;
7247;SDS011;3665;51.034;13.642;2023-03-01T03:08:18;25.93;;;18.50;;
7247;SDS011;3665;51.034;13.642;2023-03-01T03:13:14;27.30;;;18.00;;
7247;SDS011;3665;51.034;13.642;2023-03-01T03:18:30;31.23;;;18.30;;
7247;SDS011;3665;51.034;13.642;2023-03-01T03:23:31;31.00;;;18.63;;
7247;SDS011;3665;51.034;13.642;2023-03-01T03:28:35;33.70;;;20.83;;
7247;SDS011;3665;51.034;13.642;2023-03-01T03:33:40;30.00;;;19.43;;
7247;SDS011;3665;51.034;13.642;2023-03-01T03:38:46;27.53;;;18.63;;
7247;SDS011;3665;51.034;13.642;2023-03-01T03:43:48;30.13;;;20.30;;
7247;SDS011;3665;51.034;13.642;2023-03-01T03:48:55;34.07;;;21.90;;
7247;SDS011;3665;51.034;13.642;2023-03-01T03:54:18;31.30;;;20.80;;
7247;SDS011;3665;51.034;13.642;2023-03-01T03:59:14;30.47;;;20.10;;
7247;SDS011;3665;51.034;13.642;2023-03-01T04:04:03;33.20;;;20.50;;
7247;SDS011;3665;51.034;13.642;2023-03-01T04:09:05;35.03;;;21.13;;
7247;SDS011;3665;51.034;13.642;2023-03-01T04:13:55;34.57;;;21.90;;
7247;SDS011;3665;51.034;13.642;2023-03-01T04:18:43;34.40;;;20.50;;
7247;SDS011;3665;51.034;13.642;2023-03-01T04:23:30;33.80;;;21.50;;
7247;SDS011;3665;51.034;13.642;2023-03-01T04:28:20;38.13;;;21.13;;
7247;SDS011;3665;51.034;13.642;2023-03-01T04:33:06;33.87;;;21.67;;
7247;SDS011;3665;51.034;13.642;2023-03-01T04:37:55;31.80;;;21.67;;
7247;SDS011;3665;51.034;13.642;2023-03-01T04:42:43;32.23;;;20.07;;
7247;SDS011;3665;51.034;13.642;2023-03-01T04:47:32;39.27;;;22.97;;
7247;SDS011;3665;51.034;13.642;2023-03-01T04:52:19;40.87;;;24.40;;
7247;SDS011;3665;51.034;13.642;2023-03-01T04:57:05;36.80;;;23.13;;
7247;SDS011;3665;51.034;13.642;2023-03-01T05:01:54;34.57;;;22.37;;
7247;SDS011;3665;51.034;13.642;2023-03-01T05:06:44;30.87;;;19.80;;
7247;SDS011;3665;51.034;13.642;2023-03-01T05:11:29;31.07;;;20.17;;
7247;SDS011;3665;51.034;13.642;2023-03-01T05:16:17;32.47;;;21.30;;
7247;SDS011;3665;51.034;13.642;2023-03-01T05:21:06;30.33;;;19.33;;
7247;SDS011;3665;51.034;13.642;2023-03-01T05:25:56;34.17;;;20.30;;
7247;SDS011;3665;51.034;13.642;2023-03-01T05:30:41;34.70;;;21.43;;
7247;SDS011;3665;51.034;13.642;2023-03-01T05:35:27;29.87;;;18.97;;
7247;SDS011;3665;51.034;13.642;2023-03-01T05:40:20;29.60;;;17.17;;
7247;SDS011;3665;51.034;13.642;2023-03-01T05:45:05;31.87;;;20.73;;
7247;SDS011;3665;51.034;13.642;2023-03-01T05:49:54;31.33;;;19.23;;
7247;SDS011;3665;51.034;13.642;2023-03-01T05:54:42;28.57;;;17.67;;
7247;SDS011;3665;51.034;13.642;2023-03-01T05:59:29;29.23;;;17.80;;
7247;SDS011;3665;51.034;13.642;2023-03-01T06:04:22;34.70;;;19.63;;
7247;SDS011;3665;51.034;13.642;2023-03-01T06:09:06;32.87;;;19.97;;
7247;SDS011;3665;51.034;13.642;2023-03-01T06:13:53;30.23;;;17.97;;
7247;SDS011;3665;51.034;13.642;2023-03-01T06:18:45;32.87;;;18.63;;
7247;SDS011;3665;51.034;13.642;2023-03-01T06:23:29;37.17;;;22.27;;
7247;SDS011;3665;51.034;13.642;2023-03-01T06:28:14;35.83;;;24.00;;
7247;SDS011;3665;51.034;13.642;2023-03-01T06:33:09;36.10;;;23.73;;
7247;SDS011;3665;51.034;13.642;2023-03-01T06:37:54;36.00;;;24.23;;
7247;SDS011;3665;51.034;13.642;2023-03-01T06:42:42;35.17;;;21.10;;
7247;SDS011;3665;51.034;13.642;2023-03-01T06:47:29;34.43;;;21.20;;
7247;SDS011;3665;51.034;13.642;2023-03-01T06:52:17;35.53;;;21.37;;
7247;SDS011;3665;51.034;13.642;2023-03-01T07:02:11;36.10;;;20.87;;
7247;SDS011;3665;51.034;13.642;2023-03-01T07:06:56;37.83;;;23.30;;
7247;SDS011;3665;51.034;13.642;2023-03-01T07:11:46;33.00;;;22.73;;
7247;SDS011;3665;51.034;13.642;2023-03-01T07:16:40;38.67;;;22.27;;
7247;SDS011;3665;51.034;13.642;2023-03-01T07:21:23;34.57;;;21.20;;
7247;SDS011;3665;51.034;13.642;2023-03-01T07:26:09;33.17;;;20.13;;
7247;SDS011;3665;51.034;13.642;2023-03-01T07:30:59;37.50;;;23.53;;
7247;SDS011;3665;51.034;13.642;2023-03-01T07:35:48;37.23;;;23.57;;
7247;SDS011;3665;51.034;13.642;2023-03-01T07:40:50;39.03;;;24.00;;
7247;SDS011;3665;51.034;13.642;2023-03-01T07:45:37;35.97;;;22.37;;
7247;SDS011;3665;51.034;13.642;2023-03-01T07:50:25;32.83;;;22.33;;
7247;SDS011;3665;51.034;13.642;2023-03-01T07:55:13;34.63;;;22.73;;
7247;SDS011;3665;51.034;13.642;2023-03-01T08:00:03;36.80;;;23.93;;
7247;SDS011;3665;51.034;13.642;2023-03-01T08:05:10;32.20;;;22.67;;
7247;SDS011;3665;51.034;13.642;2023-03-01T08:09:54;32.80;;;21.53;;
7247;SDS011;3665;51.034;13.642;2023-03-01T08:14:48;29.60;;;21.63;;
7247;SDS011;3665;51.034;13.642;2023-03-01T08:19:50;29.63;;;20.57;;
7247;SDS011;3665;51.034;13.642;2023-03-01T08:24:33;30.20;;;20.93;;
7247;SDS011;3665;51.034;13.642;2023-03-01T08:29:17;27.53;;;18.17;;
7247;SDS011;3665;51.034;13.642;2023-03-01T08:34:11;30.47;;;18.87;;
7247;SDS011;3665;51.034;13.642;2023-03-01T08:38:58;30.27;;;20.33;;
7247;SDS011;3665;51.034;13.642;2023-03-01T08:43:48;29.03;;;20.90;;
7247;SDS011;3665;51.034;13.642;2023-03-01T08:48:33;27.37;;;19.17;;
7247;SDS011;3665;51.034;13.642;2023-03-01T08:53:19;26.50;;;19.10;;
7247;SDS011;3665;51.034;13.642;2023-03-01T08:58:09;31.30;;;20.53;;
7247;SDS011;3665;51.034;13.642;2023-03-01T09:03:02;27.67;;;20.30;;
7247;SDS011;3665;51.034;13.642;2023-03-01T09:07:46;24.83;;;17.87;;
7247;SDS011;3665;51.034;13.642;2023-03-01T09:17:21;24.83;;;18.30;;
7247;SDS011;3665;51.034;13.642;2023-03-01T09:22:13;25.13;;;18.33;;
7247;SDS011;3665;51.034;13.642;2023-03-01T09:27:49;27.93;;;18.07;;
7247;SDS011;3665;51.034;13.642;2023-03-01T09:32:33;26.93;;;19.37;;
7247;SDS011;3665;51.034;13.642;2023-03-01T09:37:20;25.00;;;18.87;;
7247;SDS011;3665;51.034;13.642;2023-03-01T09:42:10;25.73;;;19.23;;
7247;SDS011;3665;51.034;13.642;2023-03-01T09:47:00;23.70;;;17.90;;
7247;SDS011;3665;51.034;13.642;2023-03-01T09:51:48;25.83;;;16.93;;
7247;SDS011;3665;51.034;13.642;2023-03-01T09:56:44;25.07;;;17.87;;
7247;SDS011;3665;51.034;13.642;2023-03-01T10:01:55;23.70;;;17.03;;
7247;SDS011;3665;51.034;13.642;2023-03-01T10:12:04;22.50;;;16.63;;
7247;SDS011;3665;51.034;13.642;2023-03-01T10:17:08;22.50;;;16.70;;
7247;SDS011;3665;51.034;13.642;2023-03-01T10:22:03;23.00;;;17.57;;
7247;SDS011;3665;51.034;13.642;2023-03-01T10:26:57;21.50;;;16.60;;
7247;SDS011;3665;51.034;13.642;2023-03-01T10:31:46;21.23;;;17.40;;
7247;SDS011;3665;51.034;13.642;2023-03-01T10:36:36;21.13;;;15.47;;
7247;SDS011;3665;51.034;13.642;2023-03-01T10:41:23;24.60;;;18.03;;
7247;SDS011;3665;51.034;13.642;2023-03-01T10:46:26;22.73;;;16.80;;
7247;SDS011;3665;51.034;13.642;2023-03-01T10:51:31;23.27;;;17.00;;
7247;SDS011;3665;51.034;13.642;2023-03-01T10:56:23;20.87;;;17.00;;
7247;SDS011;3665;51.034;13.642;2023-03-01T11:01:37;20.10;;;16.57;;
7247;SDS011;3665;51.034;13.642;2023-03-01T11:11:31;23.93;;;16.23;;
7247;SDS011;3665;51.034;13.642;2023-03-01T11:21:39;22.73;;;15.80;;
7247;SDS011;3665;51.034;13.642;2023-03-01T11:26:26;19.87;;;15.30;;
7247;SDS011;3665;51.034;13.642;2023-03-01T11:31:30;17.43;;;13.87;;
7247;SDS011;3665;51.034;13.642;2023-03-01T11:36:19;19.47;;;14.77;;
7247;SDS011;3665;51.034;13.642;2023-03-01T11:41:23;19.20;;;13.93;;
7247;SDS011;3665;51.034;13.642;2023-03-01T11:51:46;19.57;;;13.40;;
7247;SDS011;3665;51.034;13.642;2023-03-01T11:56:35;18.43;;;13.73;;
7247;SDS011;3665;51.034;13.642;2023-03-01T12:01:43;18.00;;;12.93;;
7247;SDS011;3665;51.034;13.642;2023-03-01T12:07:02;20.93;;;13.00;;
7247;SDS011;3665;51.034;13.642;2023-03-01T12:17:52;14.40;;;11.33;;
7247;SDS011;3665;51.034;13.642;2023-03-01T12:23:02;15.30;;;11.80;;
7247;SDS011;3665;51.034;13.642;2023-03-01T12:33:39;12.87;;;9.07;;
7247;SDS011;3665;51.034;13.642;2023-03-01T12:38:42;11.97;;;9.60;;
7247;SDS011;3665;51.034;13.642;2023-03-01T12:43:36;12.43;;;9.37;;
7247;SDS011;3665;51.034;13.642;2023-03-01T12:53:54;14.93;;;10.70;;
7247;SDS011;3665;51.034;13.642;2023-03-01T12:58:46;12.97;;;9.80;;
7247;SDS011;3665;51.034;13.642;2023-03-01T13:09:27;13.13;;;9.83;;
7247;SDS011;3665;51.034;13.642;2023-03-01T13:19:32;17.27;;;12.17;;
7247;SDS011;3665;51.034;13.642;2023-03-01T13:24:53;19.27;;;13.97;;
7247;SDS011;3665;51.034;13.642;2023-03-01T13:30:42;18.03;;;14.07;;
7247;SDS011;3665;51.034;13.642;2023-03-01T13:35:40;15.53;;;12.57;;
7247;SDS011;3665;51.034;13.642;2023-03-01T13:45:55;16.50;;;12.27;;
7247;SDS011;3665;51.034;13.642;2023-03-01T13:50:44;16.07;;;11.47;;
7247;SDS011;3665;51.034;13.642;2023-03-01T13:55:34;15.93;;;11.60;;
7247;SDS011;3665;51.034;13.642;2023-03-01T14:00:26;14.53;;;11.73;;
7247;SDS011;3665;51.034;13.642;2023-03-01T14:05:33;20.47;;;11.83;;
7247;SDS011;3665;51.034;13.642;2023-03-01T14:10:28;14.97;;;11.63;;
7247;SDS011;3665;51.034;13.642;2023-03-01T14:15:37;16.30;;;11.57;;
7247;SDS011;3665;51.034;13.642;2023-03-01T14:20:38;14.80;;;11.93;;
7247;SDS011;3665;51.034;13.642;2023-03-01T14:25:26;16.20;;;11.33;;
7247;SDS011;3665;51.034;13.642;2023-03-01T14:30:21;17.60;;;12.47;;
7247;SDS011;3665;51.034;13.642;2023-03-01T14:35:20;14.67;;;11.03;;
7247;SDS011;3665;51.034;13.642;2023-03-01T14:40:20;19.53;;;12.53;;
7247;SDS011;3665;51.034;13.642;2023-03-01T14:45:43;15.17;;;11.43;;
7247;SDS011;3665;51.034;13.642;2023-03-01T14:50:48;16.87;;;12.80;;
7247;SDS011;3665;51.034;13.642;2023-03-01T14:55:41;20.43;;;12.37;;
7247;SDS011;3665;51.034;13.642;2023-03-01T15:00:35;19.07;;;12.43;;
7247;SDS011;3665;51.034;13.642;2023-03-01T15:05:24;18.50;;;12.67;;
7247;SDS011;3665;51.034;13.642;2023-03-01T15:10:17;16.73;;;11.83;;
7247;SDS011;3665;51.034;13.642;2023-03-01T15:15:21;17.17;;;12.17;;
7247;SDS011;3665;51.034;13.642;2023-03-01T15:20:19;16.57;;;11.87;;
7247;SDS011;3665;51.034;13.642;2023-03-01T15:25:13;15.93;;;12.23;;
7247;SDS011;3665;51.034;13.642;2023-03-01T15:30:13;17.23;;;13.00;;
7247;SDS011;3665;51.034;13.642;2023-03-01T15:40:20;16.40;;;11.07;;
7247;SDS011;3665;51.034;13.642;2023-03-01T15:45:26;18.23;;;12.57;;
7247;SDS011;3665;51.034;13.642;2023-03-01T15:50:15;15.13;;;11.70;;
7247;SDS011;3665;51.034;13.642;2023-03-01T15:55:01;19.80;;;12.17;;
7247;SDS011;3665;51.034;13.642;2023-03-01T15:59:48;14.13;;;11.03;;
7247;SDS011;3665;51.034;13.642;2023-03-01T16:04:35;18.20;;;12.97;;
7247;SDS011;3665;51.034;13.642;2023-03-01T16:09:23;17.30;;;12.13;;
7247;SDS011;3665;51.034;13.642;2023-03-01T16:14:13;16.90;;;10.80;;
7247;SDS011;3665;51.034;13.642;2023-03-01T16:19:00;18.73;;;10.93;;
7247;SDS011;3665;51.034;13.642;2023-03-01T16:23:47;15.53;;;10.83;;
7247;SDS011;3665;51.034;13.642;2023-03-01T16:28:40;15.87;;;11.17;;
7247;SDS011;3665;51.034;13.642;2023-03-01T16:33:23;15.83;;;11.80;;
7247;SDS011;3665;51.034;13.642;2023-03-01T16:38:26;18.73;;;12.80;;
7247;SDS011;3665;51.034;13.642;2023-03-01T16:43:19;15.43;;;11.20;;
7247;SDS011;3665;51.034;13.642;2023-03-01T16:48:03;19.17;;;13.73;;
7247;SDS011;3665;51.034;13.642;2023-03-01T16:52:50;21.67;;;13.83;;
7247;SDS011;3665;51.034;13.642;2023-03-01T16:57:44;19.23;;;12.90;;
7247;SDS011;3665;51.034;13.642;2023-03-01T17:02:28;20.13;;;14.03;;
7247;SDS011;3665;51.034;13.642;2023-03-01T17:07:17;19.83;;;13.67;;
7247;SDS011;3665;51.034;13.642;2023-03-01T17:12:04;18.53;;;13.77;;
7247;SDS011;3665;51.034;13.642;2023-03-01T17:16:52;22.17;;;15.40;;
7247;SDS011;3665;51.034;13.642;2023-03-01T17:21:42;20.17;;;13.33;;
7247;SDS011;3665;51.034;13.642;2023-03-01T17:26:27;19.63;;;13.07;;
7247;SDS011;3665;51.034;13.642;2023-03-01T17:31:20;22.43;;;15.13;;
7247;SDS011;3665;51.034;13.642;2023-03-01T17:36:06;25.33;;;16.13;;
7247;SDS011;3665;51.034;13.642;2023-03-01T17:40:50;23.90;;;17.53;;
7247;SDS011;3665;51.034;13.642;2023-03-01T17:45:39;26.93;;;18.00;;
7247;SDS011;3665;51.034;13.642;2023-03-01T17:50:26;24.43;;;16.37;;
7247;SDS011;3665;51.034;13.642;2023-03-01T17:55:20;23.93;;;16.57;;
7247;SDS011;3665;51.034;13.642;2023-03-01T18:00:05;24.23;;;17.00;;
7247;SDS011;3665;51.034;13.642;2023-03-01T18:05:00;27.67;;;17.90;;
7247;SDS011;3665;51.034;13.642;2023-03-01T18:09:56;25.97;;;18.03;;
7247;SDS011;3665;51.034;13.642;2023-03-01T18:14:44;26.17;;;17.53;;
7247;SDS011;3665;51.034;13.642;2023-03-01T18:19:32;27.37;;;18.10;;
7247;SDS011;3665;51.034;13.642;2023-03-01T18:24:18;26.03;;;16.60;;
7247;SDS011;3665;51.034;13.642;2023-03-01T18:29:08;24.13;;;16.83;;
7247;SDS011;3665;51.034;13.642;2023-03-01T18:33:55;25.67;;;16.77;;
7247;SDS011;3665;51.034;13.642;2023-03-01T18:38:42;30.37;;;19.23;;
7247;SDS011;3665;51.034;13.642;2023-03-01T18:43:31;36.77;;;21.37;;
7247;SDS011;3665;51.034;13.642;2023-03-01T18:48:20;33.50;;;20.00;;
7247;SDS011;3665;51.034;13.642;2023-03-01T18:53:08;25.57;;;16.60;;
7247;SDS011;3665;51.034;13.642;2023-03-01T18:57:55;20.70;;;14.20;;
7247;SDS011;3665;51.034;13.642;2023-03-01T19:02:43;22.37;;;14.17;;
7247;SDS011;3665;51.034;13.642;2023-03-01T19:07:31;17.80;;;12.43;;
7247;SDS011;3665;51.034;13.642;2023-03-01T19:12:25;20.13;;;12.43;;
7247;SDS011;3665;51.034;13.642;2023-03-01T19:17:27;16.60;;;11.70;;
7247;SDS011;3665;51.034;13.642;2023-03-01T19:22:12;17.00;;;10.90;;
7247;SDS011;3665;51.034;13.642;2023-03-01T19:26:59;15.13;;;11.13;;
7247;SDS011;3665;51.034;13.642;2023-03-01T19:31:53;20.70;;;14.00;;
7247;SDS011;3665;51.034;13.642;2023-03-01T19:36:36;19.47;;;13.30;;
7247;SDS011;3665;51.034;13.642;2023-03-01T19:41:22;14.60;;;10.50;;
7247;SDS011;3665;51.034;13.642;2023-03-01T19:46:10;14.20;;;9.93;;
7247;SDS011;3665;51.034;13.642;2023-03-01T19:51:00;18.07;;;10.23;;
7247;SDS011;3665;51.034;13.642;2023-03-01T19:55:46;20.63;;;12.30;;
7247;SDS011;3665;51.034;13.642;2023-03-01T20:00:43;21.23;;;12.70;;
7247;SDS011;3665;51.034;13.642;2023-03-01T20:05:39;15.63;;;11.37;;
7247;SDS011;3665;51.034;13.642;2023-03-01T20:10:29;17.90;;;11.07;;
7247;SDS011;3665;51.034;13.642;2023-03-01T20:15:14;16.80;;;10.73;;
7247;SDS011;3665;51.034;13.642;2023-03-01T20:20:07;15.53;;;11.43;;
7247;SDS011;3665;51.034;13.642;2023-03-01T20:24:52;17.03;;;10.70;;
7247;SDS011;3665;51.034;13.642;2023-03-01T20:29:42;17.43;;;10.33;;
7247;SDS011;3665;51.034;13.642;2023-03-01T20:34:26;19.70;;;12.20;;
7247;SDS011;3665;51.034;13.642;2023-03-01T20:39:18;17.97;;;11.97;;
7247;SDS011;3665;51.034;13.642;2023-03-01T20:44:04;20.80;;;12.03;;
7247;SDS011;3665;51.034;13.642;2023-03-01T20:48:51;20.03;;;13.40;;
7247;SDS011;3665;51.034;13.642;2023-03-01T20:53:39;20.43;;;14.30;;
7247;SDS011;3665;51.034;13.642;2023-03-01T20:58:27;19.37;;;13.27;;
7247;SDS011;3665;51.034;13.642;2023-03-01T21:03:16;18.40;;;12.60;;
7247;SDS011;3665;51.034;13.642;2023-03-01T21:08:04;18.13;;;12.20;;
7247;SDS011;3665;51.034;13.642;2023-03-01T21:12:54;21.47;;;13.33;;
7247;SDS011;3665;51.034;13.642;2023-03-01T21:17:38;18.77;;;11.83;;
7247;SDS011;3665;51.034;13.642;2023-03-01T21:22:30;17.73;;;12.20;;
7247;SDS011;3665;51.034;13.642;2023-03-01T21:27:36;19.93;;;12.13;;
7247;SDS011;3665;51.034;13.642;2023-03-01T21:32:19;26.07;;;16.73;;
7247;SDS011;3665;51.034;13.642;2023-03-01T21:37:07;20.40;;;12.13;;
7247;SDS011;3665;51.034;13.642;2023-03-01T21:41:54;20.30;;;12.53;;
7247;SDS011;3665;51.034;13.642;2023-03-01T21:46:43;18.60;;;12.63;;
7247;SDS011;3665;51.034;13.642;2023-03-01T21:51:30;19.20;;;12.97;;
7247;SDS011;3665;51.034;13.642;2023-03-01T21:56:24;34.57;;;24.33;;
7247;SDS011;3665;51.034;13.642;2023-03-01T22:01:24;44.10;;;29.93;;
7247;SDS011;3665;51.034;13.642;2023-03-01T22:06:12;48.53;;;33.33;;
7247;SDS011;3665;51.034;13.642;2023-03-01T22:16:39;25.07;;;18.63;;
7247;SDS011;3665;51.034;13.642;2023-03-01T22:22:52;26.97;;;17.30;;
7247;SDS011;3665;51.034;13.642;2023-03-01T22:28:04;22.87;;;15.67;;
7247;SDS011;3665;51.034;13.642;2023-03-01T22:33:56;22.03;;;15.10;;
7247;SDS011;3665;51.034;13.642;2023-03-01T22:38:46;24.13;;;15.63;;
7247;SDS011;3665;51.034;13.642;2023-03-01T22:43:31;24.47;;;15.90;;
7247;SDS011;3665;51.034;13.642;2023-03-01T22:48:21;24.67;;;16.77;;
7247;SDS011;3665;51.034;13.642;2023-03-01T22:53:06;26.43;;;17.10;;
7247;SDS011;3665;51.034;13.642;2023-03-01T22:57:56;23.33;;;15.87;;
7247;SDS011;3665;51.034;13.642;2023-03-01T23:02:43;25.37;;;17.50;;
7247;SDS011;3665;51.034;13.642;2023-03-01T23:07:31;26.43;;;17.67;;
7247;SDS011;3665;51.034;13.642;2023-03-01T23:12:18;27.90;;;17.77;;
7247;SDS011;3665;51.034;13.642;2023-03-01T23:22:43;27.90;;;16.73;;
7247;SDS011;3665;51.034;13.642;2023-03-01T23:27:31;27.47;;;16.97;;
7247;SDS011;3665;51.034;13.642;2023-03-01T23:32:18;24.37;;;16.83;;
7247;SDS011;3665;51.034;13.642;2023-03-01T23:37:09;25.20;;;16.37;;
7247;SDS011;3665;51.034;13.642;2023-03-01T23:41:54;31.60;;;16.57;;
7247;SDS011;3665;51.034;13.642;2023-03-01T23:46:43;38.10;;;20.77;;
7247;SDS011;3665;51.034;13.642;2023-03-01T23:51:31;32.00;;;19.00;;
7247;SDS011;3665;51.034;13.642;2023-03-01T23:56:20;43.33;;;21.10;;
